B Gas Summit — 9HA3934 — position and weather

sailwx.info

Track history (hours):
 
Tides and Currents Weather Stations Pressure Air Temp Water Temp Dewpoint Dewpoint Depression Visibility Wind Speed Wind Dir Waves Ship Positions

B Gas Summit

Last reported at 2017-Oct-23 02:18 UTC. Time now 2017-Oct-23 06:03 UTC.
Position N 50°22' E 000°15'.

Length 95 m; draft 5.6 m.

Type: Tanker. MMSI: 256508000.

Date/timePositionNaut miles runAvg speedWind from/ knotsBaromVisibWave heightAir tempDewpointWater temp
2017-Oct-23 02:18N 50°22' E 000°15'612.1
2017-Oct-23 01:48N 50°20' E 000°06'412.4
2017-Oct-23 01:27N 50°19' W 000°00'612.5
2017-Oct-23 01:00N 50°18' W 000°09'612.9
2017-Oct-23 00:30N 50°16' W 000°19'9914.9
2017-Oct-22 17:53N 49°50' W 002°47'2012.4
2017-Oct-22 16:16N 49°40' W 003°14'312.0
2017-Oct-22 16:00N 49°39' W 003°19'6810.2
2017-Oct-22 09:22N 49°05' W 004°49'3510.9
2017-Oct-22 06:10N 48°46' W 005°34'1011.6
2017-Oct-22 05:17N 48°39' W 005°46'15 7.7
2017-Oct-22 03:17N 48°25' W 005°38'3 8.3
2017-Oct-22 02:53N 48°21' W 005°36'3 8.5
2017-Oct-22 02:30N 48°18' W 005°35'5 8.4
2017-Oct-22 01:56N 48°14' W 005°33'4 8.4
2017-Oct-22 01:30N 48°10' W 005°31'4 8.1
2017-Oct-22 01:01N 48°06' W 005°29'4 7.8
2017-Oct-22 00:29N 48°03' W 005°28'4 7.5
2017-Oct-22 00:00N 47°59' W 005°26'4 7.2
2017-Oct-21 23:30N 47°56' W 005°24'3 6.6
2017-Oct-21 23:00N 47°53' W 005°23'3 6.2
2017-Oct-21 22:30N 47°50' W 005°21'3 6.3
2017-Oct-21 22:00N 47°47' W 005°20'3 6.5
2017-Oct-21 21:29N 47°44' W 005°18'10 6.1
2017-Oct-21 19:50N 47°34' W 005°13'2 6.3
2017-Oct-21 19:28N 47°32' W 005°11'4 6.2
2017-Oct-21 18:53N 47°29' W 005°10'171 8.6
2017-Oct-20 22:56N 44°47' W 003°47'1013.1
2017-Oct-20 22:11N 44°38' W 003°42'212.9
2017-Oct-20 22:00N 44°36' W 003°41'713.0
2017-Oct-20 21:28N 44°29' W 003°38'712.8
2017-Oct-20 20:58N 44°23' W 003°35'712.9
2017-Oct-20 20:26N 44°17' W 003°32'512.7
2017-Oct-20 20:00N 44°11' W 003°30'612.4
2017-Oct-20 19:30N 44°06' W 003°26'612.3
2017-Oct-20 19:00N 44°00' W 003°23'612.2
2017-Oct-20 18:30N 43°54' W 003°20'612.1
2017-Oct-20 18:00N 43°49' W 003°17'612.3
2017-Oct-20 17:30N 43°43' W 003°15'612.2
2017-Oct-20 17:00N 43°37' W 003°12'612.3
2017-Oct-20 16:30N 43°31' W 003°09'611.4
2017-Oct-20 16:00N 43°26' W 003°06'4 7.7
2017-Oct-20 15:30N 43°22' W 003°06'0 0.8
2017-Oct-20 14:59N 43°22' W 003°06'0 0.0
2017-Oct-20 14:29N 43°22' W 003°06'0 0.0
2017-Oct-20 13:29N 43°22' W 003°06'0 0.0
2017-Oct-20 12:59N 43°22' W 003°06'0 0.0
2017-Oct-20 12:29N 43°22' W 003°06'0 0.0
2017-Oct-20 11:59N 43°22' W 003°06'0 0.0
2017-Oct-20 11:29N 43°22' W 003°06'0 0.0
2017-Oct-20 10:59N 43°22' W 003°06'0 0.0
2017-Oct-20 10:29N 43°22' W 003°06'0 0.0
2017-Oct-20 09:59N 43°22' W 003°06'0 0.0
2017-Oct-20 09:29N 43°22' W 003°06'0 0.0
2017-Oct-20 08:56N 43°22' W 003°06'0 0.0
2017-Oct-20 08:29N 43°22' W 003°06'0 0.0
2017-Oct-20 07:59N 43°22' W 003°06'0 0.0
2017-Oct-20 07:29N 43°22' W 003°06'0 0.0
2017-Oct-20 06:59N 43°22' W 003°06'0 0.0
2017-Oct-20 06:29N 43°22' W 003°06'0 0.0
2017-Oct-20 05:56N 43°22' W 003°06'0 0.0
2017-Oct-20 05:26N 43°22' W 003°06'0 0.0
2017-Oct-20 04:59N 43°22' W 003°06'0 0.0
2017-Oct-20 04:29N 43°22' W 003°06'0 0.0
2017-Oct-20 03:59N 43°22' W 003°06'0 0.0
2017-Oct-20 03:29N 43°22' W 003°06'0 0.0
2017-Oct-20 02:59N 43°22' W 003°06'0 0.0
2017-Oct-20 02:29N 43°22' W 003°06'0 0.0
2017-Oct-20 01:56N 43°22' W 003°06'0 0.0
2017-Oct-20 01:29N 43°22' W 003°06'0 0.0
2017-Oct-20 00:56N 43°22' W 003°06'0 0.0
2017-Oct-20 00:29N 43°22' W 003°06'0 0.0
2017-Oct-19 23:56N 43°22' W 003°06'0 0.0
2017-Oct-19 23:14N 43°22' W 003°06'0 0.0
2017-Oct-19 22:53N 43°22' W 003°06'0 0.0
2017-Oct-19 22:20N 43°22' W 003°06'0 0.0
2017-Oct-19 21:41N 43°22' W 003°06'0 0.0
2017-Oct-19 21:29N 43°22' W 003°06'0 0.0
2017-Oct-19 20:59N 43°22' W 003°06'0 0.0
2017-Oct-19 20:20N 43°22' W 003°06'0 0.0
2017-Oct-19 19:59N 43°22' W 003°06'0 0.0
2017-Oct-19 19:20N 43°22' W 003°06'0 0.0
2017-Oct-19 18:56N 43°22' W 003°06'0 0.0
2017-Oct-19 18:29N 43°22' W 003°06'0 0.0
2017-Oct-19 17:59N 43°22' W 003°06'0 0.0
2017-Oct-19 17:26N 43°22' W 003°06'0 0.0
2017-Oct-19 16:56N 43°22' W 003°06'0 0.0
2017-Oct-19 16:29N 43°22' W 003°06'0 0.0
2017-Oct-19 15:59N 43°22' W 003°06'0 0.0
2017-Oct-19 15:29N 43°22' W 003°06'0 0.0
2017-Oct-19 14:56N 43°22' W 003°06'1 2.1
2017-Oct-19 14:30N 43°22' W 003°05'2 3.1
2017-Oct-19 14:00N 43°23' W 003°07'0 0.5
2017-Oct-19 13:29N 43°22' W 003°07'0 0.1
2017-Oct-19 12:59N 43°22' W 003°07'0 0.0
2017-Oct-19 12:29N 43°22' W 003°07'0 0.0
2017-Oct-19 11:59N 43°22' W 003°07'0 0.0
2017-Oct-19 11:29N 43°22' W 003°07'0 0.1
2017-Oct-19 10:59N 43°22' W 003°07'0 0.1
2017-Oct-19 10:29N 43°22' W 003°07'0 0.0
2017-Oct-19 09:59N 43°22' W 003°07'0 0.0
2017-Oct-19 09:29N 43°22' W 003°07'0 0.0
2017-Oct-19 08:59N 43°22' W 003°07'0 0.0
2017-Oct-19 08:29N 43°22' W 003°07'0 0.0
2017-Oct-19 07:59N 43°22' W 003°07'0 0.0
2017-Oct-19 07:29N 43°22' W 003°07'0 0.0
2017-Oct-19 06:59N 43°22' W 003°07'0 0.1
2017-Oct-19 06:29N 43°22' W 003°07'0 0.1
2017-Oct-19 05:59N 43°22' W 003°07'0 0.0
2017-Oct-19 05:29N 43°22' W 003°07'0 0.1
2017-Oct-19 04:59N 43°22' W 003°07'0 0.1
2017-Oct-19 04:29N 43°22' W 003°07'0 0.0
2017-Oct-19 03:59N 43°22' W 003°07'0 0.0
2017-Oct-19 03:29N 43°22' W 003°07'0 0.0
2017-Oct-19 02:59N 43°22' W 003°07'0 0.0
2017-Oct-19 02:29N 43°22' W 003°07'0 0.0
2017-Oct-19 01:59N 43°22' W 003°07'0 0.0
2017-Oct-19 01:29N 43°22' W 003°07'0 0.0
2017-Oct-19 00:59N 43°22' W 003°07'0 0.0
2017-Oct-19 00:29N 43°22' W 003°07'0 0.0
2017-Oct-18 23:59N 43°22' W 003°07'0 0.0
2017-Oct-18 23:29N 43°22' W 003°07'0 0.0
2017-Oct-18 22:59N 43°22' W 003°07'0 0.0
2017-Oct-18 22:29N 43°22' W 003°07'0 0.0
2017-Oct-18 21:59N 43°22' W 003°07'0 0.0
2017-Oct-18 21:29N 43°22' W 003°07'0 0.0
2017-Oct-18 20:59N 43°22' W 003°07'0 0.0
2017-Oct-18 20:29N 43°22' W 003°07'0 0.0
2017-Oct-18 19:59N 43°22' W 003°07'0 0.0
2017-Oct-18 19:29N 43°22' W 003°07'0 0.0
2017-Oct-18 18:59N 43°22' W 003°07'0 0.0
2017-Oct-18 18:29N 43°22' W 003°07'0 0.0
2017-Oct-18 18:00N 43°22' W 003°07'0 0.2
2017-Oct-18 17:30N 43°22' W 003°07'4 7.3
2017-Oct-18 17:00N 43°26' W 003°07'713.8
2017-Oct-18 16:31N 43°32' W 003°10'714.5
2017-Oct-18 16:00N 43°39' W 003°14'714.1
2017-Oct-18 15:31N 43°46' W 003°17'714.0
2017-Oct-18 15:01N 43°52' W 003°21'1413.8
2017-Oct-18 13:58N 44°06' W 003°28'913.6
2017-Oct-18 13:18N 44°14' W 003°32'6713.4
2017-Oct-18 08:20N 45°17' W 004°06'513.2
2017-Oct-18 07:57N 45°21' W 004°09'9012.3
2017-Oct-18 00:39N 46°46' W 004°53'1712.6
2017-Oct-17 23:18N 47°02' W 005°02'412.4
2017-Oct-17 22:59N 47°05' W 005°04'1012.5
2017-Oct-17 22:09N 47°15' W 005°09'312.5
2017-Oct-17 21:54N 47°18' W 005°11'612.2
2017-Oct-17 21:25N 47°24' W 005°14'2112.6
2017-Oct-17 19:45N 47°43' W 005°25'412.8
2017-Oct-17 19:28N 47°47' W 005°27'613.1
2017-Oct-17 19:01N 47°52' W 005°30'713.5
2017-Oct-17 18:28N 47°59' W 005°33'613.3
2017-Oct-17 17:59N 48°05' W 005°37'612.9
2017-Oct-17 17:30N 48°10' W 005°42'713.2
2017-Oct-17 17:00N 48°16' W 005°46'70 9.1
2017-Oct-17 09:20N 49°16' W 004°52'612.6
2017-Oct-17 08:53N 49°19' W 004°44'712.5
2017-Oct-17 08:20N 49°22' W 004°35'512.3
2017-Oct-17 07:57N 49°25' W 004°28'612.2
2017-Oct-17 07:25N 49°28' W 004°20'711.6
2017-Oct-17 06:49N 49°31' W 004°11'411.3
2017-Oct-17 06:30N 49°33' W 004°06'5 9.7
2017-Oct-17 05:58N 49°35' W 003°59'4 8.7
2017-Oct-17 05:30N 49°38' W 003°53'5 8.2
2017-Oct-17 04:56N 49°40' W 003°47'4 7.7
2017-Oct-17 04:21N 49°42' W 003°41'3 7.4
2017-Oct-17 03:54N 49°43' W 003°36'3 7.2
2017-Oct-17 03:28N 49°45' W 003°32'3 7.1
2017-Oct-17 02:59N 49°47' W 003°28'4 7.4
2017-Oct-17 02:30N 49°48' W 003°23'4 7.5
2017-Oct-17 02:00N 49°50' W 003°18'4 8.1
2017-Oct-17 01:30N 49°52' W 003°12'6 9.1
2017-Oct-17 00:50N 49°55' W 003°04'3 9.3
2017-Oct-17 00:30N 49°57' W 003°00'5 9.7
2017-Oct-17 00:00N 49°59' W 002°53'99 8.6
2017-Oct-16 12:29N 50°26' W 000°25'714.1
2017-Oct-16 12:00N 50°28' W 000°15'713.7
2017-Oct-16 11:30N 50°30' W 000°05'713.5
2017-Oct-16 11:01N 50°32' E 000°05'713.7
2017-Oct-16 10:30N 50°34' E 000°16'713.7
2017-Oct-16 10:00N 50°36' E 000°26'713.3
2017-Oct-16 09:30N 50°38' E 000°36'713.1
2017-Oct-16 09:00N 50°42' E 000°44'713.1
2017-Oct-16 08:30N 50°46' E 000°53'712.8
2017-Oct-16 08:00N 50°50' E 001°01'612.7
2017-Oct-16 07:30N 50°54' E 001°09'713.1
2017-Oct-16 06:56N 50°59' E 001°17'613.9
2017-Oct-16 06:30N 51°03' E 001°24'815.3
2017-Oct-16 06:00N 51°08' E 001°34'815.7
2017-Oct-16 05:30N 51°13' E 001°44'815.7
2017-Oct-16 05:00N 51°19' E 001°51'815.4
2017-Oct-16 04:30N 51°26' E 001°57'714.6
2017-Oct-16 04:00N 51°31' E 002°05'714.2
2017-Oct-16 03:30N 51°36' E 002°14'813.8
2017-Oct-16 02:56N 51°42' E 002°22'1113.3
2017-Oct-16 02:04N 51°51' E 002°33'212.9
2017-Oct-16 01:54N 51°52' E 002°36'512.5
2017-Oct-16 01:28N 51°56' E 002°42'1012.0
2017-Oct-16 00:39N 52°03' E 002°54'512.9
2017-Oct-16 00:17N 52°02' E 003°02'412.8
2017-Oct-16 00:00N 52°03' E 003°07'612.4
2017-Oct-15 23:30N 52°04' E 003°17'611.7
2017-Oct-15 23:00N 52°03' E 003°27'612.4
2017-Oct-15 22:30N 52°03' E 003°37'611.8
2017-Oct-15 22:00N 52°03' E 003°46'510.2
2017-Oct-15 21:30N 52°02' E 003°54'5 9.9
2017-Oct-15 21:00N 51°60' E 004°01'511.0
2017-Oct-15 20:31N 51°57' E 004°09'3 5.2
2017-Oct-15 20:00N 51°55' E 004°12'0 0.0
2017-Oct-15 19:27N 51°55' E 004°12'0 0.0
2017-Oct-15 16:36N 51°55' E 004°12'0 0.0
2017-Oct-15 16:24N 51°55' E 004°12'0 0.0
2017-Oct-15 15:45N 51°55' E 004°12'0 0.0
2017-Oct-15 15:24N 51°55' E 004°12'0 0.0
2017-Oct-15 15:00N 51°55' E 004°12'0 0.0
2017-Oct-15 13:57N 51°55' E 004°12'0 0.0
2017-Oct-15 13:18N 51°55' E 004°12'0 0.0
2017-Oct-15 12:48N 51°55' E 004°12'0 0.0
2017-Oct-15 12:30N 51°55' E 004°12'0 0.0
2017-Oct-15 12:00N 51°55' E 004°12'0 0.0
2017-Oct-15 11:27N 51°55' E 004°12'0 0.0
2017-Oct-15 10:54N 51°55' E 004°12'0 0.0
2017-Oct-15 10:27N 51°55' E 004°12'0 0.0
2017-Oct-15 09:54N 51°55' E 004°12'0 0.0
2017-Oct-15 09:30N 51°55' E 004°12'0 0.0
2017-Oct-15 09:00N 51°55' E 004°12'0 0.0
2017-Oct-15 08:27N 51°55' E 004°12'0 0.0
2017-Oct-15 08:00N 51°55' E 004°12'0 0.0
2017-Oct-15 07:27N 51°55' E 004°12'0 0.0
2017-Oct-15 07:00N 51°55' E 004°12'0 0.0
2017-Oct-15 06:30N 51°55' E 004°12'0 0.0
2017-Oct-15 05:48N 51°55' E 004°12'0 0.0
2017-Oct-15 05:21N 51°55' E 004°12'0 0.0
2017-Oct-15 05:00N 51°55' E 004°12'0 0.0
2017-Oct-15 04:18N 51°55' E 004°12'0 0.0
2017-Oct-15 03:57N 51°55' E 004°12'0 0.0
2017-Oct-15 03:30N 51°55' E 004°12'0 0.0
2017-Oct-15 02:54N 51°55' E 004°12'0 0.0
2017-Oct-15 02:30N 51°55' E 004°12'0 0.0
2017-Oct-15 01:54N 51°55' E 004°12'0 0.0
2017-Oct-15 01:30N 51°55' E 004°12'0 0.0
2017-Oct-15 01:00N 51°55' E 004°12'0 0.0
2017-Oct-15 00:30N 51°55' E 004°12'0 0.0
2017-Oct-15 00:00N 51°55' E 004°12'0 0.0
2017-Oct-14 23:30N 51°55' E 004°12'0 0.0
2017-Oct-14 22:57N 51°55' E 004°12'0 0.0
2017-Oct-14 22:27N 51°55' E 004°12'0 0.0
2017-Oct-14 22:00N 51°55' E 004°12'0 0.0
2017-Oct-14 21:30N 51°55' E 004°12'0 0.0
2017-Oct-14 21:00N 51°55' E 004°12'0 0.0
2017-Oct-14 20:30N 51°55' E 004°12'0 0.0
2017-Oct-14 19:51N 51°55' E 004°12'0 0.0
2017-Oct-14 19:21N 51°55' E 004°12'0 0.0
2017-Oct-14 18:57N 51°55' E 004°12'0 0.0
2017-Oct-14 18:30N 51°55' E 004°12'0 0.0
2017-Oct-14 18:00N 51°55' E 004°12'0 0.0
2017-Oct-14 17:30N 51°55' E 004°12'0 0.0
2017-Oct-14 17:00N 51°55' E 004°12'0 0.0
2017-Oct-14 16:27N 51°55' E 004°12'0 0.0
2017-Oct-14 16:00N 51°55' E 004°12'0 0.0
2017-Oct-14 15:27N 51°55' E 004°12'0 0.0
2017-Oct-14 15:00N 51°55' E 004°12'0 0.0
2017-Oct-14 14:30N 51°55' E 004°12'0 0.0
2017-Oct-14 14:00N 51°55' E 004°12'0 0.0
2017-Oct-14 13:30N 51°55' E 004°12'0 0.0
2017-Oct-14 12:36N 51°55' E 004°12'0 0.0
2017-Oct-14 12:21N 51°55' E 004°12'0 0.0
2017-Oct-14 12:00N 51°55' E 004°12'0 0.0
2017-Oct-14 11:27N 51°55' E 004°12'0 0.5
2017-Oct-14 11:00N 51°55' E 004°12'2 4.1
2017-Oct-14 10:30N 51°57' E 004°10'510.4
2017-Oct-14 10:00N 51°59' E 004°02'510.3
2017-Oct-14 09:30N 52°00' E 003°54'3 6.8
2017-Oct-14 09:00N 51°59' E 003°49'2 3.4
2017-Oct-14 08:25N 51°57' E 003°48'0 0.0
2017-Oct-14 07:58N 51°57' E 003°48'0 0.0
2017-Oct-14 07:28N 51°57' E 003°48'0 0.0
2017-Oct-14 06:58N 51°57' E 003°48'0 0.0
2017-Oct-14 06:25N 51°57' E 003°48'0 0.0
2017-Oct-14 05:58N 51°57' E 003°48'0 0.1
2017-Oct-14 05:22N 51°57' E 003°48'0 0.1
2017-Oct-14 04:55N 51°57' E 003°48'0 0.0
2017-Oct-14 04:16N 51°57' E 003°48'0 0.0
2017-Oct-14 03:58N 51°57' E 003°48'0 0.0
2017-Oct-14 03:28N 51°57' E 003°48'0 0.0
2017-Oct-14 02:58N 51°57' E 003°48'0 0.0
2017-Oct-14 02:25N 51°57' E 003°48'0 0.1
2017-Oct-14 01:55N 51°57' E 003°48'0 0.1
2017-Oct-14 01:28N 51°57' E 003°48'0 0.1
2017-Oct-14 00:58N 51°57' E 003°48'0 0.0
2017-Oct-14 00:25N 51°57' E 003°48'0 0.0
2017-Oct-13 23:58N 51°57' E 003°48'0 0.0
2017-Oct-13 23:28N 51°57' E 003°48'0 0.0
2017-Oct-13 22:58N 51°57' E 003°48'0 0.0
2017-Oct-13 22:28N 51°57' E 003°48'0 0.0
2017-Oct-13 21:58N 51°57' E 003°48'0 0.0
2017-Oct-13 21:28N 51°57' E 003°48'0 0.0
2017-Oct-13 20:58N 51°57' E 003°48'0 0.0
2017-Oct-13 20:28N 51°57' E 003°48'0 0.0
2017-Oct-13 19:58N 51°57' E 003°48'0 0.0
2017-Oct-13 19:28N 51°57' E 003°48'0 0.0
2017-Oct-13 18:55N 51°57' E 003°48'0 0.0
2017-Oct-13 18:28N 51°57' E 003°48'0 0.0
2017-Oct-13 17:58N 51°57' E 003°48'0 0.0
2017-Oct-13 17:25N 51°57' E 003°48'0 0.0
2017-Oct-13 16:58N 51°57' E 003°48'0 0.1
2017-Oct-13 16:28N 51°57' E 003°48'0 0.1
2017-Oct-13 15:58N 51°57' E 003°48'0 0.0
2017-Oct-13 15:28N 51°57' E 003°48'0 0.0
2017-Oct-13 14:58N 51°57' E 003°48'0 0.1
2017-Oct-13 14:28N 51°57' E 003°48'0 0.1
2017-Oct-13 13:58N 51°57' E 003°48'0 0.0
2017-Oct-13 13:13N 51°57' E 003°48'0 0.1
2017-Oct-13 12:52N 51°57' E 003°48'0 0.0
2017-Oct-13 12:25N 51°57' E 003°48'0 0.0
2017-Oct-13 11:55N 51°57' E 003°48'0 0.0
2017-Oct-13 11:28N 51°57' E 003°48'0 0.0
2017-Oct-13 10:58N 51°57' E 003°48'0 0.0
2017-Oct-13 10:28N 51°57' E 003°48'0 0.0
2017-Oct-13 09:58N 51°57' E 003°48'0 0.0
2017-Oct-13 09:28N 51°57' E 003°48'0 0.0
2017-Oct-13 08:58N 51°57' E 003°48'0 0.0
2017-Oct-13 08:25N 51°57' E 003°48'0 0.0
2017-Oct-13 07:58N 51°57' E 003°48'0 0.0
2017-Oct-13 07:25N 51°57' E 003°48'0 0.0
2017-Oct-13 06:58N 51°57' E 003°48'0 0.0
2017-Oct-13 06:28N 51°57' E 003°48'0 0.0
2017-Oct-13 05:58N 51°57' E 003°48'0 0.0
2017-Oct-13 05:28N 51°57' E 003°48'0 0.0
2017-Oct-13 04:58N 51°57' E 003°48'0 0.0
2017-Oct-13 04:28N 51°57' E 003°48'0 0.0
2017-Oct-13 03:58N 51°57' E 003°48'0 0.1
2017-Oct-13 03:28N 51°57' E 003°48'0 0.1
2017-Oct-13 02:58N 51°57' E 003°48'0 0.0
2017-Oct-13 02:28N 51°57' E 003°48'  
Track history (hours):
 
Tides and Currents Weather Stations Pressure Air Temp Water Temp Dewpoint Dewpoint Depression Visibility Wind Speed Wind Dir Waves Ship Positions

B Gas Summit

Last reported at 2017-Oct-23 02:18 UTC. Time now 2017-Oct-23 06:03 UTC.
Position N 50°22' E 000°15'.

Length 95 m; draft 5.6 m.

Type: Tanker. MMSI: 256508000.

Date/timePositionNaut miles runAvg speedWind from/ knotsBaromVisibWave heightAir tempDewpointWater temp
2017-Oct-23 02:18N 50°22' E 000°15'612.1
2017-Oct-23 01:48N 50°20' E 000°06'412.4
2017-Oct-23 01:27N 50°19' W 000°00'612.5
2017-Oct-23 01:00N 50°18' W 000°09'612.9
2017-Oct-23 00:30N 50°16' W 000°19'9914.9
2017-Oct-22 17:53N 49°50' W 002°47'2012.4
2017-Oct-22 16:16N 49°40' W 003°14'312.0
2017-Oct-22 16:00N 49°39' W 003°19'6810.2
2017-Oct-22 09:22N 49°05' W 004°49'3510.9
2017-Oct-22 06:10N 48°46' W 005°34'1011.6
2017-Oct-22 05:17N 48°39' W 005°46'15 7.7
2017-Oct-22 03:17N 48°25' W 005°38'3 8.3
2017-Oct-22 02:53N 48°21' W 005°36'3 8.5
2017-Oct-22 02:30N 48°18' W 005°35'5 8.4
2017-Oct-22 01:56N 48°14' W 005°33'4 8.4
2017-Oct-22 01:30N 48°10' W 005°31'4 8.1
2017-Oct-22 01:01N 48°06' W 005°29'4 7.8
2017-Oct-22 00:29N 48°03' W 005°28'4 7.5
2017-Oct-22 00:00N 47°59' W 005°26'4 7.2
2017-Oct-21 23:30N 47°56' W 005°24'3 6.6
2017-Oct-21 23:00N 47°53' W 005°23'3 6.2
2017-Oct-21 22:30N 47°50' W 005°21'3 6.3
2017-Oct-21 22:00N 47°47' W 005°20'3 6.5
2017-Oct-21 21:29N 47°44' W 005°18'10 6.1
2017-Oct-21 19:50N 47°34' W 005°13'2 6.3
2017-Oct-21 19:28N 47°32' W 005°11'4 6.2
2017-Oct-21 18:53N 47°29' W 005°10'171 8.6
2017-Oct-20 22:56N 44°47' W 003°47'1013.1
2017-Oct-20 22:11N 44°38' W 003°42'212.9
2017-Oct-20 22:00N 44°36' W 003°41'713.0
2017-Oct-20 21:28N 44°29' W 003°38'712.8
2017-Oct-20 20:58N 44°23' W 003°35'712.9
2017-Oct-20 20:26N 44°17' W 003°32'512.7
2017-Oct-20 20:00N 44°11' W 003°30'612.4
2017-Oct-20 19:30N 44°06' W 003°26'612.3
2017-Oct-20 19:00N 44°00' W 003°23'612.2
2017-Oct-20 18:30N 43°54' W 003°20'612.1
2017-Oct-20 18:00N 43°49' W 003°17'612.3
2017-Oct-20 17:30N 43°43' W 003°15'612.2
2017-Oct-20 17:00N 43°37' W 003°12'612.3
2017-Oct-20 16:30N 43°31' W 003°09'611.4
2017-Oct-20 16:00N 43°26' W 003°06'4 7.7
2017-Oct-20 15:30N 43°22' W 003°06'0 0.8
2017-Oct-20 14:59N 43°22' W 003°06'0 0.0
2017-Oct-20 14:29N 43°22' W 003°06'0 0.0
2017-Oct-20 13:29N 43°22' W 003°06'0 0.0
2017-Oct-20 12:59N 43°22' W 003°06'0 0.0
2017-Oct-20 12:29N 43°22' W 003°06'0 0.0
2017-Oct-20 11:59N 43°22' W 003°06'0 0.0
2017-Oct-20 11:29N 43°22' W 003°06'0 0.0
2017-Oct-20 10:59N 43°22' W 003°06'0 0.0
2017-Oct-20 10:29N 43°22' W 003°06'0 0.0
2017-Oct-20 09:59N 43°22' W 003°06'0 0.0
2017-Oct-20 09:29N 43°22' W 003°06'0 0.0
2017-Oct-20 08:56N 43°22' W 003°06'0 0.0
2017-Oct-20 08:29N 43°22' W 003°06'0 0.0
2017-Oct-20 07:59N 43°22' W 003°06'0 0.0
2017-Oct-20 07:29N 43°22' W 003°06'0 0.0
2017-Oct-20 06:59N 43°22' W 003°06'0 0.0
2017-Oct-20 06:29N 43°22' W 003°06'0 0.0
2017-Oct-20 05:56N 43°22' W 003°06'0 0.0
2017-Oct-20 05:26N 43°22' W 003°06'0 0.0
2017-Oct-20 04:59N 43°22' W 003°06'0 0.0
2017-Oct-20 04:29N 43°22' W 003°06'0 0.0
2017-Oct-20 03:59N 43°22' W 003°06'0 0.0
2017-Oct-20 03:29N 43°22' W 003°06'0 0.0
2017-Oct-20 02:59N 43°22' W 003°06'0 0.0
2017-Oct-20 02:29N 43°22' W 003°06'0 0.0
2017-Oct-20 01:56N 43°22' W 003°06'0 0.0
2017-Oct-20 01:29N 43°22' W 003°06'0 0.0
2017-Oct-20 00:56N 43°22' W 003°06'0 0.0
2017-Oct-20 00:29N 43°22' W 003°06'0 0.0
2017-Oct-19 23:56N 43°22' W 003°06'0 0.0
2017-Oct-19 23:14N 43°22' W 003°06'0 0.0
2017-Oct-19 22:53N 43°22' W 003°06'0 0.0
2017-Oct-19 22:20N 43°22' W 003°06'0 0.0
2017-Oct-19 21:41N 43°22' W 003°06'0 0.0
2017-Oct-19 21:29N 43°22' W 003°06'0 0.0
2017-Oct-19 20:59N 43°22' W 003°06'0 0.0
2017-Oct-19 20:20N 43°22' W 003°06'0 0.0
2017-Oct-19 19:59N 43°22' W 003°06'0 0.0
2017-Oct-19 19:20N 43°22' W 003°06'0 0.0
2017-Oct-19 18:56N 43°22' W 003°06'0 0.0
2017-Oct-19 18:29N 43°22' W 003°06'0 0.0
2017-Oct-19 17:59N 43°22' W 003°06'0 0.0
2017-Oct-19 17:26N 43°22' W 003°06'0 0.0
2017-Oct-19 16:56N 43°22' W 003°06'0 0.0
2017-Oct-19 16:29N 43°22' W 003°06'0 0.0
2017-Oct-19 15:59N 43°22' W 003°06'0 0.0
2017-Oct-19 15:29N 43°22' W 003°06'0 0.0
2017-Oct-19 14:56N 43°22' W 003°06'1 2.1
2017-Oct-19 14:30N 43°22' W 003°05'2 3.1
2017-Oct-19 14:00N 43°23' W 003°07'0 0.5
2017-Oct-19 13:29N 43°22' W 003°07'0 0.1
2017-Oct-19 12:59N 43°22' W 003°07'0 0.0
2017-Oct-19 12:29N 43°22' W 003°07'0 0.0
2017-Oct-19 11:59N 43°22' W 003°07'0 0.0
2017-Oct-19 11:29N 43°22' W 003°07'0 0.1
2017-Oct-19 10:59N 43°22' W 003°07'0 0.1
2017-Oct-19 10:29N 43°22' W 003°07'0 0.0
2017-Oct-19 09:59N 43°22' W 003°07'0 0.0
2017-Oct-19 09:29N 43°22' W 003°07'0 0.0
2017-Oct-19 08:59N 43°22' W 003°07'0 0.0
2017-Oct-19 08:29N 43°22' W 003°07'0 0.0
2017-Oct-19 07:59N 43°22' W 003°07'0 0.0
2017-Oct-19 07:29N 43°22' W 003°07'0 0.0
2017-Oct-19 06:59N 43°22' W 003°07'0 0.1
2017-Oct-19 06:29N 43°22' W 003°07'0 0.1
2017-Oct-19 05:59N 43°22' W 003°07'0 0.0
2017-Oct-19 05:29N 43°22' W 003°07'0 0.1
2017-Oct-19 04:59N 43°22' W 003°07'0 0.1
2017-Oct-19 04:29N 43°22' W 003°07'0 0.0
2017-Oct-19 03:59N 43°22' W 003°07'0 0.0
2017-Oct-19 03:29N 43°22' W 003°07'0 0.0
2017-Oct-19 02:59N 43°22' W 003°07'0 0.0
2017-Oct-19 02:29N 43°22' W 003°07'0 0.0
2017-Oct-19 01:59N 43°22' W 003°07'0 0.0
2017-Oct-19 01:29N 43°22' W 003°07'0 0.0
2017-Oct-19 00:59N 43°22' W 003°07'0 0.0
2017-Oct-19 00:29N 43°22' W 003°07'0 0.0
2017-Oct-18 23:59N 43°22' W 003°07'0 0.0
2017-Oct-18 23:29N 43°22' W 003°07'0 0.0
2017-Oct-18 22:59N 43°22' W 003°07'0 0.0
2017-Oct-18 22:29N 43°22' W 003°07'0 0.0
2017-Oct-18 21:59N 43°22' W 003°07'0 0.0
2017-Oct-18 21:29N 43°22' W 003°07'0 0.0
2017-Oct-18 20:59N 43°22' W 003°07'0 0.0
2017-Oct-18 20:29N 43°22' W 003°07'0 0.0
2017-Oct-18 19:59N 43°22' W 003°07'0 0.0
2017-Oct-18 19:29N 43°22' W 003°07'0 0.0
2017-Oct-18 18:59N 43°22' W 003°07'0 0.0
2017-Oct-18 18:29N 43°22' W 003°07'0 0.0
2017-Oct-18 18:00N 43°22' W 003°07'0 0.2
2017-Oct-18 17:30N 43°22' W 003°07'4 7.3
2017-Oct-18 17:00N 43°26' W 003°07'713.8
2017-Oct-18 16:31N 43°32' W 003°10'714.5
2017-Oct-18 16:00N 43°39' W 003°14'714.1
2017-Oct-18 15:31N 43°46' W 003°17'714.0
2017-Oct-18 15:01N 43°52' W 003°21'1413.8
2017-Oct-18 13:58N 44°06' W 003°28'913.6
2017-Oct-18 13:18N 44°14' W 003°32'6713.4
2017-Oct-18 08:20N 45°17' W 004°06'513.2
2017-Oct-18 07:57N 45°21' W 004°09'9012.3
2017-Oct-18 00:39N 46°46' W 004°53'1712.6
2017-Oct-17 23:18N 47°02' W 005°02'412.4
2017-Oct-17 22:59N 47°05' W 005°04'1012.5
2017-Oct-17 22:09N 47°15' W 005°09'312.5
2017-Oct-17 21:54N 47°18' W 005°11'612.2
2017-Oct-17 21:25N 47°24' W 005°14'2112.6
2017-Oct-17 19:45N 47°43' W 005°25'412.8
2017-Oct-17 19:28N 47°47' W 005°27'613.1
2017-Oct-17 19:01N 47°52' W 005°30'713.5
2017-Oct-17 18:28N 47°59' W 005°33'613.3
2017-Oct-17 17:59N 48°05' W 005°37'612.9
2017-Oct-17 17:30N 48°10' W 005°42'713.2
2017-Oct-17 17:00N 48°16' W 005°46'70 9.1
2017-Oct-17 09:20N 49°16' W 004°52'612.6
2017-Oct-17 08:53N 49°19' W 004°44'712.5
2017-Oct-17 08:20N 49°22' W 004°35'512.3
2017-Oct-17 07:57N 49°25' W 004°28'612.2
2017-Oct-17 07:25N 49°28' W 004°20'711.6
2017-Oct-17 06:49N 49°31' W 004°11'411.3
2017-Oct-17 06:30N 49°33' W 004°06'5 9.7
2017-Oct-17 05:58N 49°35' W 003°59'4 8.7
2017-Oct-17 05:30N 49°38' W 003°53'5 8.2
2017-Oct-17 04:56N 49°40' W 003°47'4 7.7
2017-Oct-17 04:21N 49°42' W 003°41'3 7.4
2017-Oct-17 03:54N 49°43' W 003°36'3 7.2
2017-Oct-17 03:28N 49°45' W 003°32'3 7.1
2017-Oct-17 02:59N 49°47' W 003°28'4 7.4
2017-Oct-17 02:30N 49°48' W 003°23'4 7.5
2017-Oct-17 02:00N 49°50' W 003°18'4 8.1
2017-Oct-17 01:30N 49°52' W 003°12'6 9.1
2017-Oct-17 00:50N 49°55' W 003°04'3 9.3
2017-Oct-17 00:30N 49°57' W 003°00'5 9.7
2017-Oct-17 00:00N 49°59' W 002°53'99 8.6
2017-Oct-16 12:29N 50°26' W 000°25'714.1
2017-Oct-16 12:00N 50°28' W 000°15'713.7
2017-Oct-16 11:30N 50°30' W 000°05'713.5
2017-Oct-16 11:01N 50°32' E 000°05'713.7
2017-Oct-16 10:30N 50°34' E 000°16'713.7
2017-Oct-16 10:00N 50°36' E 000°26'713.3
2017-Oct-16 09:30N 50°38' E 000°36'713.1
2017-Oct-16 09:00N 50°42' E 000°44'713.1
2017-Oct-16 08:30N 50°46' E 000°53'712.8
2017-Oct-16 08:00N 50°50' E 001°01'612.7
2017-Oct-16 07:30N 50°54' E 001°09'713.1
2017-Oct-16 06:56N 50°59' E 001°17'613.9
2017-Oct-16 06:30N 51°03' E 001°24'815.3
2017-Oct-16 06:00N 51°08' E 001°34'815.7
2017-Oct-16 05:30N 51°13' E 001°44'815.7
2017-Oct-16 05:00N 51°19' E 001°51'815.4
2017-Oct-16 04:30N 51°26' E 001°57'714.6
2017-Oct-16 04:00N 51°31' E 002°05'714.2
2017-Oct-16 03:30N 51°36' E 002°14'813.8
2017-Oct-16 02:56N 51°42' E 002°22'1113.3
2017-Oct-16 02:04N 51°51' E 002°33'212.9
2017-Oct-16 01:54N 51°52' E 002°36'512.5
2017-Oct-16 01:28N 51°56' E 002°42'1012.0
2017-Oct-16 00:39N 52°03' E 002°54'512.9
2017-Oct-16 00:17N 52°02' E 003°02'412.8
2017-Oct-16 00:00N 52°03' E 003°07'612.4
2017-Oct-15 23:30N 52°04' E 003°17'611.7
2017-Oct-15 23:00N 52°03' E 003°27'612.4
2017-Oct-15 22:30N 52°03' E 003°37'611.8
2017-Oct-15 22:00N 52°03' E 003°46'510.2
2017-Oct-15 21:30N 52°02' E 003°54'5 9.9
2017-Oct-15 21:00N 51°60' E 004°01'511.0
2017-Oct-15 20:31N 51°57' E 004°09'3 5.2
2017-Oct-15 20:00N 51°55' E 004°12'0 0.0
2017-Oct-15 19:27N 51°55' E 004°12'0 0.0
2017-Oct-15 16:36N 51°55' E 004°12'0 0.0
2017-Oct-15 16:24N 51°55' E 004°12'0 0.0
2017-Oct-15 15:45N 51°55' E 004°12'0 0.0
2017-Oct-15 15:24N 51°55' E 004°12'0 0.0
2017-Oct-15 15:00N 51°55' E 004°12'0 0.0
2017-Oct-15 13:57N 51°55' E 004°12'0 0.0
2017-Oct-15 13:18N 51°55' E 004°12'0 0.0
2017-Oct-15 12:48N 51°55' E 004°12'0 0.0
2017-Oct-15 12:30N 51°55' E 004°12'0 0.0
2017-Oct-15 12:00N 51°55' E 004°12'0 0.0
2017-Oct-15 11:27N 51°55' E 004°12'0 0.0
2017-Oct-15 10:54N 51°55' E 004°12'0 0.0
2017-Oct-15 10:27N 51°55' E 004°12'0 0.0
2017-Oct-15 09:54N 51°55' E 004°12'0 0.0
2017-Oct-15 09:30N 51°55' E 004°12'0 0.0
2017-Oct-15 09:00N 51°55' E 004°12'0 0.0
2017-Oct-15 08:27N 51°55' E 004°12'0 0.0
2017-Oct-15 08:00N 51°55' E 004°12'0 0.0
2017-Oct-15 07:27N 51°55' E 004°12'0 0.0
2017-Oct-15 07:00N 51°55' E 004°12'0 0.0
2017-Oct-15 06:30N 51°55' E 004°12'0 0.0
2017-Oct-15 05:48N 51°55' E 004°12'0 0.0
2017-Oct-15 05:21N 51°55' E 004°12'0 0.0
2017-Oct-15 05:00N 51°55' E 004°12'0 0.0
2017-Oct-15 04:18N 51°55' E 004°12'0 0.0
2017-Oct-15 03:57N 51°55' E 004°12'0 0.0
2017-Oct-15 03:30N 51°55' E 004°12'0 0.0
2017-Oct-15 02:54N 51°55' E 004°12'0 0.0
2017-Oct-15 02:30N 51°55' E 004°12'0 0.0
2017-Oct-15 01:54N 51°55' E 004°12'0 0.0
2017-Oct-15 01:30N 51°55' E 004°12'0 0.0
2017-Oct-15 01:00N 51°55' E 004°12'0 0.0
2017-Oct-15 00:30N 51°55' E 004°12'0 0.0
2017-Oct-15 00:00N 51°55' E 004°12'0 0.0
2017-Oct-14 23:30N 51°55' E 004°12'0 0.0
2017-Oct-14 22:57N 51°55' E 004°12'0 0.0
2017-Oct-14 22:27N 51°55' E 004°12'0 0.0
2017-Oct-14 22:00N 51°55' E 004°12'0 0.0
2017-Oct-14 21:30N 51°55' E 004°12'0 0.0
2017-Oct-14 21:00N 51°55' E 004°12'0 0.0
2017-Oct-14 20:30N 51°55' E 004°12'0 0.0
2017-Oct-14 19:51N 51°55' E 004°12'0 0.0
2017-Oct-14 19:21N 51°55' E 004°12'0 0.0
2017-Oct-14 18:57N 51°55' E 004°12'0 0.0
2017-Oct-14 18:30N 51°55' E 004°12'0 0.0
2017-Oct-14 18:00N 51°55' E 004°12'0 0.0
2017-Oct-14 17:30N 51°55' E 004°12'0 0.0
2017-Oct-14 17:00N 51°55' E 004°12'0 0.0
2017-Oct-14 16:27N 51°55' E 004°12'0 0.0
2017-Oct-14 16:00N 51°55' E 004°12'0 0.0
2017-Oct-14 15:27N 51°55' E 004°12'0 0.0
2017-Oct-14 15:00N 51°55' E 004°12'0 0.0
2017-Oct-14 14:30N 51°55' E 004°12'0 0.0
2017-Oct-14 14:00N 51°55' E 004°12'0 0.0
2017-Oct-14 13:30N 51°55' E 004°12'0 0.0
2017-Oct-14 12:36N 51°55' E 004°12'0 0.0
2017-Oct-14 12:21N 51°55' E 004°12'0 0.0
2017-Oct-14 12:00N 51°55' E 004°12'0 0.0
2017-Oct-14 11:27N 51°55' E 004°12'0 0.5
2017-Oct-14 11:00N 51°55' E 004°12'2 4.1
2017-Oct-14 10:30N 51°57' E 004°10'510.4
2017-Oct-14 10:00N 51°59' E 004°02'510.3
2017-Oct-14 09:30N 52°00' E 003°54'3 6.8
2017-Oct-14 09:00N 51°59' E 003°49'2 3.4
2017-Oct-14 08:25N 51°57' E 003°48'0 0.0
2017-Oct-14 07:58N 51°57' E 003°48'0 0.0
2017-Oct-14 07:28N 51°57' E 003°48'0 0.0
2017-Oct-14 06:58N 51°57' E 003°48'0 0.0
2017-Oct-14 06:25N 51°57' E 003°48'0 0.0
2017-Oct-14 05:58N 51°57' E 003°48'0 0.1
2017-Oct-14 05:22N 51°57' E 003°48'0 0.1
2017-Oct-14 04:55N 51°57' E 003°48'0 0.0
2017-Oct-14 04:16N 51°57' E 003°48'0 0.0
2017-Oct-14 03:58N 51°57' E 003°48'0 0.0
2017-Oct-14 03:28N 51°57' E 003°48'0 0.0
2017-Oct-14 02:58N 51°57' E 003°48'0 0.0
2017-Oct-14 02:25N 51°57' E 003°48'0 0.1
2017-Oct-14 01:55N 51°57' E 003°48'0 0.1
2017-Oct-14 01:28N 51°57' E 003°48'0 0.1
2017-Oct-14 00:58N 51°57' E 003°48'0 0.0
2017-Oct-14 00:25N 51°57' E 003°48'0 0.0
2017-Oct-13 23:58N 51°57' E 003°48'0 0.0
2017-Oct-13 23:28N 51°57' E 003°48'0 0.0
2017-Oct-13 22:58N 51°57' E 003°48'0 0.0
2017-Oct-13 22:28N 51°57' E 003°48'0 0.0
2017-Oct-13 21:58N 51°57' E 003°48'0 0.0
2017-Oct-13 21:28N 51°57' E 003°48'0 0.0
2017-Oct-13 20:58N 51°57' E 003°48'0 0.0
2017-Oct-13 20:28N 51°57' E 003°48'0 0.0
2017-Oct-13 19:58N 51°57' E 003°48'0 0.0
2017-Oct-13 19:28N 51°57' E 003°48'0 0.0
2017-Oct-13 18:55N 51°57' E 003°48'0 0.0
2017-Oct-13 18:28N 51°57' E 003°48'0 0.0
2017-Oct-13 17:58N 51°57' E 003°48'0 0.0
2017-Oct-13 17:25N 51°57' E 003°48'0 0.0
2017-Oct-13 16:58N 51°57' E 003°48'0 0.1
2017-Oct-13 16:28N 51°57' E 003°48'0 0.1
2017-Oct-13 15:58N 51°57' E 003°48'0 0.0
2017-Oct-13 15:28N 51°57' E 003°48'0 0.0
2017-Oct-13 14:58N 51°57' E 003°48'0 0.1
2017-Oct-13 14:28N 51°57' E 003°48'0 0.1
2017-Oct-13 13:58N 51°57' E 003°48'0 0.0
2017-Oct-13 13:13N 51°57' E 003°48'0 0.1
2017-Oct-13 12:52N 51°57' E 003°48'0 0.0
2017-Oct-13 12:25N 51°57' E 003°48'0 0.0
2017-Oct-13 11:55N 51°57' E 003°48'0 0.0
2017-Oct-13 11:28N 51°57' E 003°48'0 0.0
2017-Oct-13 10:58N 51°57' E 003°48'0 0.0
2017-Oct-13 10:28N 51°57' E 003°48'0 0.0
2017-Oct-13 09:58N 51°57' E 003°48'0 0.0
2017-Oct-13 09:28N 51°57' E 003°48'0 0.0
2017-Oct-13 08:58N 51°57' E 003°48'0 0.0
2017-Oct-13 08:25N 51°57' E 003°48'0 0.0
2017-Oct-13 07:58N 51°57' E 003°48'0 0.0
2017-Oct-13 07:25N 51°57' E 003°48'0 0.0
2017-Oct-13 06:58N 51°57' E 003°48'0 0.0
2017-Oct-13 06:28N 51°57' E 003°48'0 0.0
2017-Oct-13 05:58N 51°57' E 003°48'0 0.0
2017-Oct-13 05:28N 51°57' E 003°48'0 0.0
2017-Oct-13 04:58N 51°57' E 003°48'0 0.0
2017-Oct-13 04:28N 51°57' E 003°48'0 0.0
2017-Oct-13 03:58N 51°57' E 003°48'0 0.1
2017-Oct-13 03:28N 51°57' E 003°48'0 0.1
2017-Oct-13 02:58N 51°57' E 003°48'0 0.0
2017-Oct-13 02:28N 51°57' E 003°48'  

Dump ship's entire track history